Time;durP1;ratioP1;P1;durP2;ratioP2;P2;SDS_P1;SDS_P2;PMS_P1;PMS_P2;Temp;Humidity;BMP_temperature;BMP_pressure;BME280_temperature;BME280_humidity;BME280_pressure;Samples;Min_cycle;Max_cycle;Signal;HPM_P1;HPM_P2
2023/07/27 00:00:11;;;;;;;10.35;6.25;;;;;;;;;;4995259;28;20084;-75
2023/07/27 00:02:37;;;;;;;10.10;5.85;;;;;;;;;;4994915;28;20030;-75
2023/07/27 00:05:03;;;;;;;11.27;6.30;;;;;;;;;;4994975;28;20018;-75
2023/07/27 00:07:29;;;;;;;9.15;6.03;;;;;;;;;;4995081;28;20026;-75
2023/07/27 00:09:55;;;;;;;11.98;7.00;;;;;;;;;;4994808;28;20030;-75
2023/07/27 00:12:22;;;;;;;12.13;6.53;;;;;;;;;;5000966;28;20488;-75
2023/07/27 00:14:48;;;;;;;11.93;6.50;;;;;;;;;;5025498;28;20041;-75
2023/07/27 00:17:14;;;;;;;12.60;6.93;;;;;;;;;;5018484;28;20504;-75
2023/07/27 00:19:41;;;;;;;11.65;6.75;;;;;;;;;;5014394;28;20551;-75
2023/07/27 00:22:08;;;;;;;10.07;6.15;;;;;;;;;;5014351;28;20484;-75
2023/07/27 00:24:34;;;;;;;10.15;6.82;;;;;;;;;;5014658;28;20457;-75
2023/07/27 00:27:00;;;;;;;11.95;6.95;;;;;;;;;;5014211;28;20649;-75
2023/07/27 00:29:26;;;;;;;11.73;7.40;;;;;;;;;;5014032;28;20030;-75
2023/07/27 00:31:52;;;;;;;12.75;6.82;;;;;;;;;;5014327;28;20062;-75
2023/07/27 00:34:18;;;;;;;12.18;6.90;;;;;;;;;;5014032;28;20438;-75
2023/07/27 00:36:44;;;;;;;13.20;7.70;;;;;;;;;;5013968;28;20045;-75
2023/07/27 00:39:13;;;;;;;12.52;7.32;;;;;;;;;;5014728;28;20030;-75
2023/07/27 00:41:40;;;;;;;12.30;7.38;;;;;;;;;;5025747;28;20116;-75
2023/07/27 00:44:07;;;;;;;11.70;6.93;;;;;;;;;;5013791;28;20099;-75
2023/07/27 00:46:33;;;;;;;12.85;6.97;;;;;;;;;;5014178;28;20576;-75
2023/07/27 00:48:59;;;;;;;12.40;7.30;;;;;;;;;;5013890;28;20127;-75
2023/07/27 00:51:25;;;;;;;11.25;7.60;;;;;;;;;;5013628;28;20469;-75
2023/07/27 00:53:51;;;;;;;10.80;6.90;;;;;;;;;;5013670;28;20071;-75
2023/07/27 00:56:17;;;;;;;11.73;7.35;;;;;;;;;;5013829;28;20124;-75
2023/07/27 00:58:44;;;;;;;12.32;6.93;;;;;;;;;;5013493;28;20057;-75
2023/07/27 01:01:11;;;;;;;11.00;6.82;;;;;;;;;;5013833;28;20033;-75
2023/07/27 01:03:37;;;;;;;10.68;7.00;;;;;;;;;;5013391;28;20625;-75
2023/07/27 01:06:04;;;;;;;11.07;6.93;;;;;;;;;;5013450;28;20038;-75
2023/07/27 01:08:31;;;;;;;10.00;6.28;;;;;;;;;;5013731;28;20101;-75
2023/07/27 01:11:06;;;;;;;11.55;6.88;;;;;;;;;;5013075;28;20025;-75
2023/07/27 01:13:37;;;;;;;11.43;6.97;;;;;;;;;;5013010;28;20091;-75
2023/07/27 01:16:07;;;;;;;11.02;6.50;;;;;;;;;;5009543;28;20465;-75
2023/07/27 01:18:33;;;;;;;;;;;;;;;;;;5005522;28;20022;-75
2023/07/27 01:21:05;;;;;;;9.90;6.00;;;;;;;;;;5013246;28;19927;-75
2023/07/27 01:23:31;;;;;;;10.52;6.32;;;;;;;;;;5013366;28;20026;-75
2023/07/27 01:26:16;;;;;;;11.48;6.07;;;;;;;;;;5017338;28;20025;-75
2023/07/27 01:29:01;;;;;;;10.25;6.72;;;;;;;;;;5032250;28;20030;-75
2023/07/27 01:31:41;;;;;;;11.48;6.30;;;;;;;;;;5011588;28;20558;-75
2023/07/27 01:34:11;;;;;;;12.23;6.43;;;;;;;;;;5013032;28;20476;-75
2023/07/27 01:36:38;;;;;;;10.60;6.50;;;;;;;;;;5012872;28;20030;-75
2023/07/27 01:39:07;;;;;;;10.18;6.43;;;;;;;;;;5012888;28;20418;-75
2023/07/27 01:41:33;;;;;;;10.98;6.38;;;;;;;;;;5012981;28;20030;-75
2023/07/27 01:44:01;;;;;;;10.88;6.50;;;;;;;;;;5018880;28;20056;-75
2023/07/27 01:46:28;;;;;;;9.77;6.78;;;;;;;;;;5032397;28;20032;-75
2023/07/27 01:48:55;;;;;;;12.27;7.18;;;;;;;;;;5032979;28;20108;-75
2023/07/27 01:51:21;;;;;;;11.27;6.30;;;;;;;;;;5033348;28;20117;-75
2023/07/27 01:53:48;;;;;;;13.02;7.30;;;;;;;;;;5033301;28;20030;-75
2023/07/27 01:56:14;;;;;;;9.05;5.85;;;;;;;;;;5033147;28;20415;-75
2023/07/27 01:58:41;;;;;;;9.40;6.35;;;;;;;;;;5033181;28;20078;-75
2023/07/27 02:01:07;;;;;;;9.75;5.75;;;;;;;;;;5032998;28;20026;-75
2023/07/27 02:03:34;;;;;;;10.00;5.90;;;;;;;;;;5033053;28;20443;-75
2023/07/27 02:06:00;;;;;;;10.18;6.00;;;;;;;;;;5019635;28;20026;-75
2023/07/27 02:08:27;;;;;;;10.07;6.05;;;;;;;;;;5033209;28;20025;-77
2023/07/27 02:10:57;;;;;;;9.25;5.82;;;;;;;;;;5032914;28;20104;-75
2023/07/27 02:13:35;;;;;;;10.93;6.43;;;;;;;;;;5032944;28;20040;-76
2023/07/27 02:16:08;;;;;;;9.95;5.85;;;;;;;;;;5032394;28;20041;-76
2023/07/27 02:18:35;;;;;;;11.07;6.57;;;;;;;;;;5032711;28;20041;-75
2023/07/27 02:21:02;;;;;;;10.00;5.80;;;;;;;;;;5014615;28;20026;-76
2023/07/27 02:23:29;;;;;;;9.68;6.30;;;;;;;;;;5013031;28;20029;-75
2023/07/27 02:25:55;;;;;;;10.23;6.28;;;;;;;;;;5016946;28;20099;-76
2023/07/27 02:28:26;;;;;;;11.23;6.07;;;;;;;;;;5017659;28;20053;-76
2023/07/27 02:30:59;;;;;;;9.63;6.10;;;;;;;;;;5012576;28;20386;-76
2023/07/27 02:33:25;;;;;;;11.98;6.80;;;;;;;;;;5012773;28;20042;-76
2023/07/27 02:35:53;;;;;;;11.35;6.35;;;;;;;;;;5013119;28;20076;-76
2023/07/27 02:38:19;;;;;;;10.95;6.20;;;;;;;;;;5013108;28;20021;-76
2023/07/27 02:40:45;;;;;;;11.50;6.68;;;;;;;;;;5012778;28;20112;-75
2023/07/27 02:43:11;;;;;;;8.20;5.82;;;;;;;;;;5012734;28;20109;-76
2023/07/27 02:45:37;;;;;;;9.30;5.93;;;;;;;;;;5012610;28;20026;-76
2023/07/27 02:48:03;;;;;;;9.70;6.65;;;;;;;;;;5012779;28;20033;-76
2023/07/27 02:50:29;;;;;;;13.27;7.03;;;;;;;;;;5012585;28;20033;-76
2023/07/27 02:52:55;;;;;;;10.20;6.70;;;;;;;;;;5012503;28;20026;-76
2023/07/27 02:55:21;;;;;;;10.52;6.93;;;;;;;;;;5012520;28;20026;-76
2023/07/27 02:57:47;;;;;;;11.13;6.88;;;;;;;;;;5012524;28;20030;-75
2023/07/27 03:00:13;;;;;;;10.55;7.25;;;;;;;;;;5012506;28;20537;-76
2023/07/27 03:02:39;;;;;;;13.15;6.90;;;;;;;;;;5012510;28;20068;-76
2023/07/27 03:05:05;;;;;;;12.43;6.82;;;;;;;;;;5012364;28;20030;-76
2023/07/27 03:07:31;;;;;;;10.32;6.15;;;;;;;;;;5012482;28;20037;-76
2023/07/27 03:09:57;;;;;;;11.55;6.20;;;;;;;;;;5012457;28;20029;-76
2023/07/27 03:12:23;;;;;;;12.55;6.15;;;;;;;;;;5012355;28;20041;-75
2023/07/27 03:14:49;;;;;;;10.02;5.85;;;;;;;;;;5012316;28;20461;-76
2023/07/27 03:17:15;;;;;;;13.38;5.90;;;;;;;;;;5026981;28;20029;-76
2023/07/27 03:19:41;;;;;;;8.93;5.35;;;;;;;;;;5032463;28;20029;-76
2023/07/27 03:22:08;;;;;;;13.27;6.18;;;;;;;;;;5019315;28;20036;-75
2023/07/27 03:24:34;;;;;;;10.80;5.65;;;;;;;;;;5025705;28;20033;-75
2023/07/27 03:27:00;;;;;;;9.77;6.15;;;;;;;;;;4999768;28;20030;-75
2023/07/27 03:29:26;;;;;;;10.38;5.88;;;;;;;;;;4995175;28;20027;-75
2023/07/27 03:31:52;;;;;;;14.05;6.20;;;;;;;;;;4995496;28;20069;-75
2023/07/27 03:34:18;;;;;;;13.05;6.65;;;;;;;;;;4996589;28;20022;-75
2023/07/27 03:36:44;;;;;;;13.60;6.88;;;;;;;;;;4996714;28;20036;-75
2023/07/27 03:39:10;;;;;;;12.35;6.45;;;;;;;;;;4996493;28;20030;-75
2023/07/27 03:41:36;;;;;;;14.43;7.53;;;;;;;;;;4996391;28;20034;-75
2023/07/27 03:44:02;;;;;;;12.02;7.13;;;;;;;;;;4996352;28;20045;-75
2023/07/27 03:46:28;;;;;;;15.77;7.72;;;;;;;;;;5021872;28;20036;-75
2023/07/27 03:48:54;;;;;;;10.90;7.35;;;;;;;;;;5035952;28;20025;-76
2023/07/27 03:51:20;;;;;;;16.05;7.88;;;;;;;;;;5035637;28;20029;-76
2023/07/27 03:53:46;;;;;;;15.30;8.40;;;;;;;;;;5015864;28;20022;-75
2023/07/27 03:56:12;;;;;;;15.35;7.82;;;;;;;;;;5015709;28;20029;-76
2023/07/27 03:58:38;;;;;;;15.18;8.07;;;;;;;;;;5009155;28;20030;-76
2023/07/27 04:01:04;;;;;;;14.93;7.82;;;;;;;;;;5023469;28;20029;-76
2023/07/27 04:03:31;;;;;;;13.15;6.97;;;;;;;;;;5035731;28;20032;-76
2023/07/27 04:06:03;;;;;;;14.52;7.25;;;;;;;;;;5021943;28;20034;-76
2023/07/27 04:08:29;;;;;;;13.02;6.80;;;;;;;;;;4996283;28;20055;-76
2023/07/27 04:10:55;;;;;;;12.93;7.47;;;;;;;;;;5010256;28;20465;-76
2023/07/27 04:13:21;;;;;;;13.35;7.38;;;;;;;;;;5015788;28;20084;-76
2023/07/27 04:15:47;;;;;;;12.50;7.10;;;;;;;;;;5015690;28;20365;-76
2023/07/27 04:18:13;;;;;;;10.73;6.70;;;;;;;;;;5015807;28;20022;-76
2023/07/27 04:20:39;;;;;;;16.48;6.38;;;;;;;;;;5015687;28;20397;-76
2023/07/27 04:23:05;;;;;;;11.90;6.10;;;;;;;;;;5015747;28;20034;-76
2023/07/27 04:25:31;;;;;;;14.45;6.15;;;;;;;;;;5016998;28;20437;-76
2023/07/27 04:27:57;;;;;;;12.18;6.55;;;;;;;;;;5027809;28;20083;-76
2023/07/27 04:30:23;;;;;;;12.80;6.57;;;;;;;;;;5014011;28;20598;-76
2023/07/27 04:32:49;;;;;;;12.00;5.53;;;;;;;;;;5015523;28;20667;-76
2023/07/27 04:35:15;;;;;;;10.32;6.57;;;;;;;;;;5015497;28;20030;-76
2023/07/27 04:37:41;;;;;;;11.38;6.60;;;;;;;;;;5015648;28;20062;-76
2023/07/27 04:40:07;;;;;;;13.50;6.95;;;;;;;;;;5029233;28;20508;-76
2023/07/27 04:42:33;;;;;;;11.68;6.80;;;;;;;;;;5034746;28;20022;-76
2023/07/27 04:44:59;;;;;;;18.40;8.23;;;;;;;;;;5034794;28;20022;-76
2023/07/27 04:47:27;;;;;;;15.10;8.40;;;;;;;;;;5035400;28;20034;-76
2023/07/27 04:49:53;;;;;;;15.32;7.88;;;;;;;;;;5035401;28;20029;-76
2023/07/27 04:52:18;;;;;;;15.20;7.93;;;;;;;;;;5035177;28;20160;-76
2023/07/27 04:54:44;;;;;;;15.88;8.90;;;;;;;;;;5033100;28;20032;-76
2023/07/27 04:57:10;;;;;;;13.85;7.90;;;;;;;;;;5014909;28;20026;-76
2023/07/27 04:59:36;;;;;;;13.57;8.45;;;;;;;;;;5014975;28;20080;-76
2023/07/27 05:02:02;;;;;;;13.32;8.07;;;;;;;;;;5014987;28;20671;-75
2023/07/27 05:04:28;;;;;;;16.25;8.60;;;;;;;;;;5014800;28;20149;-76
2023/07/27 05:06:54;;;;;;;16.55;9.10;;;;;;;;;;5014854;28;20112;-76
2023/07/27 05:09:20;;;;;;;16.08;8.85;;;;;;;;;;5014741;28;20030;-76
2023/07/27 05:11:46;;;;;;;12.32;7.65;;;;;;;;;;5014582;28;20104;-76
2023/07/27 05:14:12;;;;;;;14.23;8.80;;;;;;;;;;5027703;28;20525;-76
2023/07/27 05:16:38;;;;;;;14.35;8.38;;;;;;;;;;5014424;28;20022;-76
2023/07/27 05:19:04;;;;;;;13.52;8.13;;;;;;;;;;5014704;28;20105;-76
2023/07/27 05:21:30;;;;;;;12.75;7.45;;;;;;;;;;5015876;28;20113;-76
2023/07/27 05:23:56;;;;;;;14.60;8.20;;;;;;;;;;5015564;28;20021;-76
2023/07/27 05:26:23;;;;;;;11.60;7.55;;;;;;;;;;5015013;28;20384;-76
2023/07/27 05:28:49;;;;;;;13.23;7.65;;;;;;;;;;5014573;28;20030;-76
2023/07/27 05:31:15;;;;;;;13.63;7.78;;;;;;;;;;5013116;28;20578;-76
2023/07/27 05:33:41;;;;;;;10.07;6.75;;;;;;;;;;5019484;28;20030;-76
2023/07/27 05:36:07;;;;;;;11.80;7.32;;;;;;;;;;5016262;28;20022;-76
2023/07/27 05:38:33;;;;;;;12.48;7.47;;;;;;;;;;5008447;28;20462;-76
2023/07/27 05:41:00;;;;;;;10.73;7.10;;;;;;;;;;4994622;28;20116;-76
2023/07/27 05:43:26;;;;;;;9.55;6.30;;;;;;;;;;4995067;28;20018;-76
2023/07/27 05:45:52;;;;;;;12.32;6.82;;;;;;;;;;4994291;28;20033;-76
2023/07/27 05:48:18;;;;;;;15.50;7.05;;;;;;;;;;4994376;28;20034;-76
2023/07/27 05:50:44;;;;;;;11.07;6.20;;;;;;;;;;4994062;28;20033;-76
2023/07/27 05:53:10;;;;;;;8.25;5.47;;;;;;;;;;5011541;28;20029;-76
2023/07/27 05:55:36;;;;;;;8.65;5.78;;;;;;;;;;5013869;28;20109;-75
2023/07/27 05:58:02;;;;;;;6.78;4.72;;;;;;;;;;5030390;28;20108;-76
2023/07/27 06:00:28;;;;;;;8.68;5.22;;;;;;;;;;5034369;28;20057;-76
2023/07/27 06:02:54;;;;;;;8.18;4.53;;;;;;;;;;5033573;28;20033;-76
2023/07/27 06:05:20;;;;;;;8.55;5.47;;;;;;;;;;5033325;28;20459;-75
2023/07/27 06:07:46;;;;;;;8.75;5.35;;;;;;;;;;5033260;28;20049;-76
2023/07/27 06:10:12;;;;;;;6.95;4.72;;;;;;;;;;5033319;28;20045;-76
2023/07/27 06:12:38;;;;;;;8.88;4.75;;;;;;;;;;5030274;28;20026;-76
2023/07/27 06:15:04;;;;;;;6.50;3.92;;;;;;;;;;5013378;28;20066;-75
2023/07/27 06:17:30;;;;;;;6.07;4.25;;;;;;;;;;5013236;28;20034;-76
2023/07/27 06:19:56;;;;;;;7.65;4.35;;;;;;;;;;5000497;28;20021;-76
2023/07/27 06:22:22;;;;;;;7.53;4.57;;;;;;;;;;5027604;28;20029;-76
2023/07/27 06:24:48;;;;;;;7.30;4.28;;;;;;;;;;5014099;28;20026;-76
2023/07/27 06:27:14;;;;;;;7.07;4.85;;;;;;;;;;5013987;28;20071;-76
2023/07/27 06:29:40;;;;;;;7.40;4.95;;;;;;;;;;5014155;28;20022;-76
2023/07/27 06:32:06;;;;;;;7.13;4.70;;;;;;;;;;5013053;28;20082;-76
2023/07/27 06:34:32;;;;;;;8.65;5.13;;;;;;;;;;5013649;28;20026;-76
2023/07/27 06:36:58;;;;;;;8.85;4.80;;;;;;;;;;5012784;28;20033;-76
2023/07/27 06:39:25;;;;;;;6.78;4.35;;;;;;;;;;5013068;28;20044;-76
2023/07/27 06:41:51;;;;;;;7.70;5.47;;;;;;;;;;5027941;28;20536;-76
2023/07/27 06:44:17;;;;;;;7.57;4.90;;;;;;;;;;5032892;28;20029;-76
2023/07/27 06:46:43;;;;;;;7.05;4.88;;;;;;;;;;5030972;28;20033;-76
2023/07/27 06:49:10;;;;;;;7.65;5.32;;;;;;;;;;5012277;28;20022;-75
2023/07/27 06:51:37;;;;;;;8.35;4.50;;;;;;;;;;5012716;28;20030;-75
2023/07/27 06:54:03;;;;;;;8.48;5.05;;;;;;;;;;5012308;28;20472;-75
2023/07/27 06:56:29;;;;;;;9.68;5.10;;;;;;;;;;5012422;28;20025;-75
2023/07/27 06:58:55;;;;;;;8.05;5.05;;;;;;;;;;5014785;28;20030;-75
2023/07/27 07:01:21;;;;;;;8.43;5.30;;;;;;;;;;4998537;28;20026;-76
2023/07/27 07:03:47;;;;;;;6.88;4.53;;;;;;;;;;4992683;28;20026;-76
2023/07/27 07:06:13;;;;;;;5.57;4.72;;;;;;;;;;4992847;28;20022;-75
2023/07/27 07:08:39;;;;;;;7.88;4.85;;;;;;;;;;4992795;28;20101;-75
2023/07/27 07:11:05;;;;;;;7.57;4.78;;;;;;;;;;4993180;28;20030;-76
2023/07/27 07:13:31;;;;;;;6.32;4.53;;;;;;;;;;4992963;28;20038;-75
2023/07/27 07:15:57;;;;;;;5.30;4.03;;;;;;;;;;4992762;28;20030;-75
2023/07/27 07:18:23;;;;;;;5.70;4.60;;;;;;;;;;4992745;28;20053;-76
2023/07/27 07:20:49;;;;;;;4.80;3.80;;;;;;;;;;4992614;28;20072;-76
2023/07/27 07:23:15;;;;;;;4.75;3.67;;;;;;;;;;5001574;28;20405;-76
2023/07/27 07:25:41;;;;;;;7.03;4.03;;;;;;;;;;5012315;28;20026;-76
2023/07/27 07:28:09;;;;;;;5.22;4.35;;;;;;;;;;5012061;28;20045;-75
2023/07/27 07:30:38;;;;;;;5.70;3.90;;;;;;;;;;5010753;28;20544;-76
2023/07/27 07:33:04;;;;;;;4.07;3.53;;;;;;;;;;5012547;28;20117;-76
2023/07/27 07:35:30;;;;;;;5.15;3.90;;;;;;;;;;5011903;28;20116;-76
2023/07/27 07:37:56;;;;;;;5.30;4.00;;;;;;;;;;5012255;28;20036;-76
2023/07/27 07:40:24;;;;;;;5.50;3.67;;;;;;;;;;5012207;28;20026;-76
2023/07/27 07:42:51;;;;;;;5.22;4.05;;;;;;;;;;5012133;28;20026;-76
2023/07/27 07:45:17;;;;;;;7.70;4.70;;;;;;;;;;5012558;28;20033;-76
2023/07/27 07:47:43;;;;;;;5.00;4.00;;;;;;;;;;5012124;28;20026;-76
2023/07/27 07:50:10;;;;;;;5.40;4.00;;;;;;;;;;5012004;28;20437;-75
2023/07/27 07:52:36;;;;;;;4.85;3.95;;;;;;;;;;5012342;28;20022;-76
2023/07/27 07:55:02;;;;;;;5.65;4.15;;;;;;;;;;5012027;28;20025;-75
2023/07/27 07:57:28;;;;;;;5.90;4.13;;;;;;;;;;5012294;28;20026;-75
2023/07/27 07:59:54;;;;;;;5.18;3.65;;;;;;;;;;5012083;28;20088;-75
2023/07/27 08:02:20;;;;;;;4.35;3.60;;;;;;;;;;5012037;28;20022;-76
2023/07/27 08:04:46;;;;;;;4.47;3.40;;;;;;;;;;5011983;28;20496;-75
2023/07/27 08:07:12;;;;;;;4.32;3.65;;;;;;;;;;5011975;28;20034;-75
2023/07/27 08:09:37;;;;;;;4.88;3.70;;;;;;;;;;5010682;28;20030;-75
2023/07/27 08:12:04;;;;;;;5.03;3.80;;;;;;;;;;5011672;28;20038;-75
2023/07/27 08:14:30;;;;;;;4.32;3.70;;;;;;;;;;5021474;28;20464;-76
2023/07/27 08:16:56;;;;;;;4.55;3.47;;;;;;;;;;5035106;28;20036;-75
2023/07/27 08:19:22;;;;;;;4.85;3.72;;;;;;;;;;5035065;28;20025;-75
2023/07/27 08:21:48;;;;;;;4.60;3.75;;;;;;;;;;5024945;28;20034;-75
2023/07/27 08:24:14;;;;;;;4.25;3.60;;;;;;;;;;5018703;28;20029;-75
2023/07/27 08:26:40;;;;;;;5.05;3.90;;;;;;;;;;5034890;28;20076;-75
2023/07/27 08:29:06;;;;;;;4.10;3.22;;;;;;;;;;5018198;28;20030;-75
2023/07/27 08:31:32;;;;;;;4.70;3.47;;;;;;;;;;5013733;28;20058;-76
2023/07/27 08:33:58;;;;;;;3.92;3.28;;;;;;;;;;5014781;28;20024;-75
2023/07/27 08:36:24;;;;;;;5.10;3.65;;;;;;;;;;5013724;28;20022;-76
2023/07/27 08:38:51;;;;;;;3.65;3.25;;;;;;;;;;5019908;28;20065;-75
2023/07/27 08:41:17;;;;;;;3.65;3.22;;;;;;;;;;4995933;28;20049;-75
2023/07/27 08:43:43;;;;;;;3.42;3.13;;;;;;;;;;4997932;28;20117;-75
2023/07/27 08:46:09;;;;;;;4.20;3.78;;;;;;;;;;4997200;28;20582;-75
2023/07/27 08:48:35;;;;;;;5.00;3.88;;;;;;;;;;4995440;28;20527;-76
2023/07/27 08:51:01;;;;;;;4.30;3.80;;;;;;;;;;4995407;28;20030;-75
2023/07/27 08:53:29;;;;;;;4.43;3.42;;;;;;;;;;5017962;28;20079;-76
2023/07/27 08:55:58;;;;;;;4.38;3.88;;;;;;;;;;5022423;28;20069;-76
2023/07/27 08:58:24;;;;;;;5.10;3.80;;;;;;;;;;5015453;28;20365;-77
2023/07/27 09:00:50;;;;;;;4.45;3.85;;;;;;;;;;5016705;28;20489;-76
2023/07/27 09:03:16;;;;;;;4.88;3.65;;;;;;;;;;5031199;28;20034;-76
2023/07/27 09:05:46;;;;;;;5.63;4.10;;;;;;;;;;5031906;28;20056;-76
2023/07/27 09:08:12;;;;;;;;;;;;;;;;;;5036968;28;20139;-76
2023/07/27 09:10:39;;;;;;;4.50;3.63;;;;;;;;;;5018276;28;20043;-76
2023/07/27 09:13:06;;;;;;;6.00;3.88;;;;;;;;;;5032857;28;20025;-76
2023/07/27 09:15:35;;;;;;;11.90;4.90;;;;;;;;;;5037636;28;20057;-77
2023/07/27 09:18:03;;;;;;;5.75;3.78;;;;;;;;;;5018867;28;20021;-76
2023/07/27 09:20:30;;;;;;;4.70;4.07;;;;;;;;;;5025763;28;20028;-77
2023/07/27 09:22:56;;;;;;;4.70;3.83;;;;;;;;;;5028044;28;20057;-76
2023/07/27 09:25:23;;;;;;;3.83;3.53;;;;;;;;;;5012459;28;20022;-76
2023/07/27 09:27:51;;;;;;;5.25;3.50;;;;;;;;;;5003804;28;20458;-76
2023/07/27 09:30:17;;;;;;;4.20;3.70;;;;;;;;;;5003505;28;20029;-76
2023/07/27 09:32:43;;;;;;;3.42;3.13;;;;;;;;;;5032864;28;20073;-76
2023/07/27 09:35:13;;;;;;;3.78;3.47;;;;;;;;;;5007374;28;20061;-76
2023/07/27 09:37:43;;;;;;;3.40;3.10;;;;;;;;;;5015067;28;20022;-77
2023/07/27 09:40:12;;;;;;;6.20;3.05;;;;;;;;;;5030796;28;20035;-76
2023/07/27 09:42:38;;;;;;;3.65;3.35;;;;;;;;;;5013635;28;20045;-76
2023/07/27 09:45:05;;;;;;;3.40;3.10;;;;;;;;;;5007156;28;20034;-77
2023/07/27 09:47:31;;;;;;;2.95;2.72;;;;;;;;;;5015433;28;20053;-77
2023/07/27 09:50:00;;;;;;;3.05;2.85;;;;;;;;;;5023590;28;20504;-77
2023/07/27 09:52:27;;;;;;;3.70;2.70;;;;;;;;;;5033347;28;20026;-77
2023/07/27 09:54:57;;;;;;;2.88;2.67;;;;;;;;;;5033094;28;20389;-77
2023/07/27 09:57:23;;;;;;;;;;;;;;;;;;5033632;28;20033;-77
2023/07/27 09:59:49;;;;;;;3.55;3.25;;;;;;;;;;5033343;28;19905;-77
2023/07/27 10:02:16;;;;;;;2.50;2.30;;;;;;;;;;5033095;28;20044;-77
2023/07/27 10:04:42;;;;;;;2.97;2.63;;;;;;;;;;5028818;28;20021;-77
2023/07/27 10:07:09;;;;;;;2.85;2.65;;;;;;;;;;5013421;28;20374;-77
2023/07/27 10:09:36;;;;;;;2.70;2.50;;;;;;;;;;5013241;28;20053;-77
2023/07/27 10:12:04;;;;;;;2.55;2.35;;;;;;;;;;5024103;28;20037;-77
2023/07/27 10:14:31;;;;;;;2.63;2.42;;;;;;;;;;5028363;28;20061;-77
2023/07/27 10:17:04;;;;;;;2.90;2.70;;;;;;;;;;5013093;28;20528;-77
2023/07/27 10:19:40;;;;;;;3.10;2.90;;;;;;;;;;5013168;28;20072;-78
2023/07/27 10:22:07;;;;;;;2.95;2.72;;;;;;;;;;5013258;28;20027;-78
2023/07/27 10:24:46;;;;;;;2.83;2.63;;;;;;;;;;5013223;28;20026;-78
2023/07/27 10:27:12;;;;;;;3.00;2.80;;;;;;;;;;5013412;28;20033;-76
2023/07/27 10:29:38;;;;;;;2.88;2.70;;;;;;;;;;5012562;28;20057;-77
2023/07/27 10:32:08;;;;;;;3.65;2.72;;;;;;;;;;5012205;28;20092;-78
2023/07/27 10:34:34;;;;;;;3.00;2.80;;;;;;;;;;5012805;28;20022;-77
2023/07/27 10:37:01;;;;;;;2.92;2.72;;;;;;;;;;5012495;28;20026;-77
2023/07/27 10:39:56;;;;;;;3.50;2.75;;;;;;;;;;5013101;28;20543;-77
2023/07/27 10:42:23;;;;;;;2.83;2.63;;;;;;;;;;4991942;28;20042;-77
2023/07/27 10:44:49;;;;;;;3.00;2.70;;;;;;;;;;4993374;28;20105;-77
2023/07/27 10:47:22;;;;;;;2.72;2.53;;;;;;;;;;4994084;28;20026;-77
2023/07/27 10:49:49;;;;;;;2.30;2.10;;;;;;;;;;4996832;28;20057;-77
2023/07/27 10:52:19;;;;;;;2.05;1.95;;;;;;;;;;5033241;28;20041;-77
2023/07/27 10:54:46;;;;;;;1.95;1.85;;;;;;;;;;5033422;28;20025;-77
2023/07/27 10:57:13;;;;;;;2.03;1.92;;;;;;;;;;5029225;28;20020;-77
2023/07/27 10:59:40;;;;;;;2.13;2.00;;;;;;;;;;5014402;28;20018;-77
2023/07/27 11:02:13;;;;;;;1.40;1.30;;;;;;;;;;5014786;28;20072;-77
2023/07/27 11:04:39;;;;;;;1.17;1.17;;;;;;;;;;4993166;28;20469;-77
2023/07/27 11:07:06;;;;;;;1.25;1.23;;;;;;;;;;4998127;28;20045;-77
2023/07/27 11:09:32;;;;;;;1.10;1.10;;;;;;;;;;5005797;28;20058;-77
2023/07/27 11:12:01;;;;;;;1.25;1.17;;;;;;;;;;5001752;28;20433;-77
2023/07/27 11:14:27;;;;;;;1.45;1.27;;;;;;;;;;5008864;28;20031;-77
2023/07/27 11:16:53;;;;;;;1.40;1.30;;;;;;;;;;5005231;28;20018;-77
2023/07/27 11:19:19;;;;;;;1.70;1.60;;;;;;;;;;5013042;28;20018;-78
2023/07/27 11:21:45;;;;;;;1.50;1.40;;;;;;;;;;5020217;28;20030;-78
2023/07/27 11:24:15;;;;;;;1.25;1.15;;;;;;;;;;5019641;28;20034;-78
2023/07/27 11:26:41;;;;;;;1.15;0.73;;;;;;;;;;5013411;28;20018;-78
2023/07/27 11:29:08;;;;;;;1.63;0.60;;;;;;;;;;5012842;28;20392;-78
2023/07/27 11:31:34;;;;;;;0.50;0.50;;;;;;;;;;5010228;28;20060;-78
2023/07/27 11:34:01;;;;;;;0.50;0.50;;;;;;;;;;5012747;28;20033;-78
2023/07/27 11:36:30;;;;;;;0.63;0.63;;;;;;;;;;5013516;28;20018;-77
2023/07/27 11:38:57;;;;;;;0.80;0.80;;;;;;;;;;5009963;28;20022;-78
2023/07/27 11:41:25;;;;;;;6.32;1.05;;;;;;;;;;4999119;28;20080;-78
2023/07/27 11:43:52;;;;;;;1.88;0.90;;;;;;;;;;5010583;28;20022;-78
2023/07/27 11:46:20;;;;;;;1.60;0.80;;;;;;;;;;5011969;28;20034;-77
2023/07/27 11:48:47;;;;;;;0.85;0.73;;;;;;;;;;5024812;28;20026;-77
2023/07/27 11:51:14;;;;;;;0.60;0.60;;;;;;;;;;5028851;28;20029;-78
2023/07/27 11:53:40;;;;;;;0.80;0.70;;;;;;;;;;5036356;28;20033;-77
2023/07/27 11:56:09;;;;;;;0.65;0.63;;;;;;;;;;5014581;28;20037;-77
2023/07/27 11:58:36;;;;;;;0.60;0.60;;;;;;;;;;5004574;28;20121;-77
2023/07/27 12:01:03;;;;;;;0.40;0.40;;;;;;;;;;5024622;28;20028;-78
2023/07/27 12:03:31;;;;;;;0.38;0.38;;;;;;;;;;5011258;28;20038;-78
2023/07/27 12:05:57;;;;;;;1.13;0.30;;;;;;;;;;5001172;28;20359;-77
2023/07/27 12:08:23;;;;;;;0.30;0.30;;;;;;;;;;5013289;28;20029;-77
2023/07/27 12:10:53;;;;;;;6.72;0.40;;;;;;;;;;5017631;28;20477;-78
2023/07/27 12:13:22;;;;;;;0.20;0.20;;;;;;;;;;5013726;28;20068;-76
2023/07/27 12:16:02;;;;;;;0.30;0.30;;;;;;;;;;5031070;28;20060;-76
2023/07/27 12:18:28;;;;;;;21.33;0.88;;;;;;;;;;5019299;28;20029;-76
2023/07/27 12:20:55;;;;;;;0.68;0.28;;;;;;;;;;4997543;28;20500;-77
2023/07/27 12:23:25;;;;;;;0.13;0.13;;;;;;;;;;5002218;28;20084;-77
2023/07/27 12:25:52;;;;;;;1.10;0.20;;;;;;;;;;4999635;28;20018;-76
2023/07/27 12:28:19;;;;;;;0.60;0.30;;;;;;;;;;5027231;28;20025;-76
2023/07/27 12:30:45;;;;;;;0.60;0.20;;;;;;;;;;5038907;28;20029;-77
2023/07/27 12:33:11;;;;;;;0.65;0.20;;;;;;;;;;5028317;28;20092;-77
2023/07/27 12:35:38;;;;;;;1.30;0.50;;;;;;;;;;5020602;28;20017;-77
2023/07/27 12:38:04;;;;;;;0.50;0.50;;;;;;;;;;5018335;28;20050;-77
2023/07/27 12:40:30;;;;;;;1.25;0.40;;;;;;;;;;5036922;28;20026;-77
2023/07/27 12:42:58;;;;;;;0.73;0.35;;;;;;;;;;5030490;28;20111;-77
2023/07/27 12:45:26;;;;;;;0.50;0.50;;;;;;;;;;5018479;28;20045;-77
2023/07/27 12:47:53;;;;;;;1.05;0.60;;;;;;;;;;5023771;28;20018;-77
2023/07/27 12:50:19;;;;;;;6.72;0.75;;;;;;;;;;5023198;28;20018;-77
2023/07/27 12:52:45;;;;;;;1.08;0.50;;;;;;;;;;5018717;28;20090;-77
2023/07/27 12:55:15;;;;;;;1.00;0.60;;;;;;;;;;5020738;28;20026;-77
2023/07/27 12:57:41;;;;;;;1.23;0.60;;;;;;;;;;5023218;28;20024;-77
2023/07/27 13:00:13;;;;;;;0.88;0.65;;;;;;;;;;5018867;28;20040;-77
2023/07/27 13:02:39;;;;;;;1.45;0.55;;;;;;;;;;5023034;28;20029;-77
2023/07/27 13:05:12;;;;;;;3.78;0.70;;;;;;;;;;5028777;28;20026;-77
2023/07/27 13:07:38;;;;;;;0.73;0.40;;;;;;;;;;5041262;28;20031;-77
2023/07/27 13:10:04;;;;;;;0.65;0.65;;;;;;;;;;5043971;28;20025;-77
2023/07/27 13:12:30;;;;;;;0.75;0.60;;;;;;;;;;5026321;28;20044;-77
2023/07/27 13:14:56;;;;;;;1.75;0.50;;;;;;;;;;5018863;28;20050;-77
2023/07/27 13:17:22;;;;;;;0.30;0.30;;;;;;;;;;5020324;28;20064;-77
2023/07/27 13:19:48;;;;;;;0.80;0.30;;;;;;;;;;5022368;28;20030;-77
2023/07/27 13:22:14;;;;;;;0.68;0.40;;;;;;;;;;5018565;28;20080;-77
2023/07/27 13:24:40;;;;;;;1.35;0.57;;;;;;;;;;5022563;28;20034;-77
2023/07/27 13:27:06;;;;;;;0.30;0.30;;;;;;;;;;5007896;28;20042;-77
2023/07/27 13:29:34;;;;;;;0.55;0.40;;;;;;;;;;5021170;28;20092;-77
2023/07/27 13:32:00;;;;;;;0.30;0.30;;;;;;;;;;5036231;28;20061;-77
2023/07/27 13:34:26;;;;;;;0.40;0.40;;;;;;;;;;5033522;28;20030;-77
2023/07/27 13:36:53;;;;;;;0.30;0.30;;;;;;;;;;5019501;28;20033;-77
2023/07/27 13:39:19;;;;;;;0.45;0.30;;;;;;;;;;5021671;28;20026;-77
2023/07/27 13:41:45;;;;;;;1.00;0.30;;;;;;;;;;5022451;28;20028;-77
2023/07/27 13:44:11;;;;;;;1.15;0.40;;;;;;;;;;5020596;28;20025;-77
2023/07/27 13:46:37;;;;;;;2.00;0.45;;;;;;;;;;5023440;28;20441;-77
2023/07/27 13:49:03;;;;;;;0.68;0.45;;;;;;;;;;5042547;28;20032;-77
2023/07/27 13:51:29;;;;;;;0.93;0.40;;;;;;;;;;5039656;28;20049;-77
2023/07/27 13:53:55;;;;;;;0.38;0.38;;;;;;;;;;5019465;28;20454;-77
2023/07/27 13:56:22;;;;;;;0.75;0.52;;;;;;;;;;5023547;28;20113;-77
2023/07/27 13:58:48;;;;;;;0.40;0.38;;;;;;;;;;5035403;28;20029;-77
2023/07/27 14:01:14;;;;;;;1.10;0.45;;;;;;;;;;5036567;28;20033;-77
2023/07/27 14:03:40;;;;;;;0.45;0.45;;;;;;;;;;5016958;28;20124;-77
2023/07/27 14:06:07;;;;;;;1.38;0.52;;;;;;;;;;5018154;28;20156;-77
2023/07/27 14:08:33;;;;;;;1.05;0.30;;;;;;;;;;5018450;28;20050;-76
2023/07/27 14:10:59;;;;;;;0.60;0.52;;;;;;;;;;5018568;28;20084;-77
2023/07/27 14:13:25;;;;;;;1.38;0.70;;;;;;;;;;5017692;28;20030;-77
2023/07/27 14:15:51;;;;;;;0.50;0.50;;;;;;;;;;5003370;28;20034;-77
2023/07/27 14:18:17;;;;;;;3.92;2.38;;;;;;;;;;5028634;28;20506;-76
2023/07/27 14:20:43;;;;;;;0.63;0.50;;;;;;;;;;5020890;28;20050;-76
2023/07/27 14:23:09;;;;;;;0.63;0.40;;;;;;;;;;5027740;28;20061;-77
2023/07/27 14:25:35;;;;;;;0.52;0.45;;;;;;;;;;5027174;28;20028;-77
2023/07/27 14:28:01;;;;;;;1.40;0.60;;;;;;;;;;5038806;28;20459;-77
2023/07/27 14:30:27;;;;;;;0.40;0.40;;;;;;;;;;5040443;28;20029;-76
2023/07/27 14:32:53;;;;;;;0.35;0.30;;;;;;;;;;5029506;28;20080;-77
2023/07/27 14:35:20;;;;;;;2.20;0.47;;;;;;;;;;5016940;28;20026;-77